createdAt,value
2022-12-27T00:00:57.309Z,98506.13
2022-12-27T00:02:01.282Z,98506.91
2022-12-27T00:03:04.181Z,98509.25
2022-12-27T00:04:07.377Z,98509.25
2022-12-27T00:05:13.317Z,98502.47
2022-12-27T00:06:20.448Z,98513.94
2022-12-27T00:07:23.338Z,98499.31
2022-12-27T00:08:26.318Z,98512.88
2022-12-27T00:09:33.275Z,98509.22
2022-12-27T00:10:36.252Z,98510.97
2022-12-27T00:11:43.366Z,98511.75
2022-12-27T00:12:46.150Z,98506.00
2022-12-27T00:13:49.739Z,98508.06
2022-12-27T00:14:52.591Z,98502.06
2022-12-27T00:15:55.552Z,98493.09
2022-12-27T00:16:58.460Z,98492.56
2022-12-27T00:18:01.264Z,98487.62
2022-12-27T00:19:04.831Z,98485.28
2022-12-27T00:20:11.262Z,98473.28
2022-12-27T00:21:15.053Z,98485.03
2022-12-27T00:22:18.068Z,98478.75
2022-12-27T00:23:20.797Z,98481.56
2022-12-27T00:24:23.681Z,98491.47
2022-12-27T00:25:26.462Z,98501.59
2022-12-27T00:26:34.854Z,98497.09
2022-12-27T00:27:38.310Z,98489.50
2022-12-27T00:28:41.968Z,98498.66
2022-12-27T00:29:44.879Z,98500.22
2022-12-27T00:30:54.981Z,98489.56
2022-12-27T00:32:04.385Z,98497.63
2022-12-27T00:33:07.315Z,98506.78
2022-12-27T00:34:11.036Z,98507.31
2022-12-27T00:35:13.826Z,98509.63
2022-12-27T00:36:19.419Z,98508.88
2022-12-27T00:37:22.336Z,98511.75
2022-12-27T00:38:25.164Z,98505.72
2022-12-27T00:39:27.978Z,98500.03
2022-12-27T00:40:31.015Z,98498.44
2022-12-27T00:41:33.872Z,98488.53
2022-12-27T00:42:36.534Z,98491.91
2022-12-27T00:43:39.542Z,98481.22
2022-12-27T00:44:43.438Z,98476.50
2022-12-27T00:45:46.390Z,98470.19
2022-12-27T00:46:49.255Z,98464.44
2022-12-27T00:47:52.263Z,98464.00
2022-12-27T00:48:55.692Z,98469.50
2022-12-27T00:49:58.438Z,98472.62
2022-12-27T00:51:07.764Z,98469.78
2022-12-27T00:52:10.715Z,98470.56
2022-12-27T00:53:14.239Z,98470.56
2022-12-27T00:54:17.109Z,98470.53
2022-12-27T00:55:19.951Z,98464.75
2022-12-27T00:56:29.455Z,98476.00
2022-12-27T00:57:32.528Z,98480.53
2022-12-27T00:58:40.668Z,98470.84
2022-12-27T00:59:44.228Z,98472.38
2022-12-27T01:00:47.856Z,98476.56
2022-12-27T01:01:50.957Z,98476.59
2022-12-27T01:02:54.108Z,98475.81
2022-12-27T01:03:58.149Z,98468.72
2022-12-27T01:05:01.184Z,98455.66
2022-12-27T01:06:13.925Z,98453.06
2022-12-27T01:07:16.922Z,98455.38
2022-12-27T01:08:19.776Z,98452.00
2022-12-27T01:09:22.853Z,98438.97
2022-12-27T01:10:25.558Z,98445.25
2022-12-27T01:11:29.583Z,98445.59
2022-12-27T01:12:32.397Z,98448.44
2022-12-27T01:13:35.939Z,98447.88
2022-12-27T01:14:42.494Z,98448.38
2022-12-27T01:15:45.858Z,98448.66
2022-12-27T01:16:49.523Z,98443.94
2022-12-27T01:17:52.332Z,98436.84
2022-12-27T01:18:57.462Z,98441.53
2022-12-27T01:20:00.500Z,98443.56
2022-12-27T01:21:11.540Z,98445.81
2022-12-27T01:22:14.251Z,98459.44
2022-12-27T01:23:17.098Z,98450.75
2022-12-27T01:24:19.826Z,98454.44
2022-12-27T01:25:22.668Z,98453.63
2022-12-27T01:26:26.064Z,98452.00
2022-12-27T01:27:29.253Z,98448.06
2022-12-27T01:28:32.576Z,98452.97
2022-12-27T01:29:35.431Z,98458.69
2022-12-27T01:30:38.218Z,98451.81
2022-12-27T01:31:41.318Z,98465.41
2022-12-27T01:32:44.273Z,98464.03
2022-12-27T01:33:47.292Z,98463.47
2022-12-27T01:34:51.637Z,98467.91
2022-12-27T01:35:54.315Z,98474.13
2022-12-27T01:36:57.125Z,98476.25
2022-12-27T01:37:59.994Z,98480.72
2022-12-27T01:39:03.761Z,98479.53
2022-12-27T01:40:07.261Z,98479.81
2022-12-27T01:41:46.272Z,98485.31
2022-12-27T01:42:55.887Z,98475.41
2022-12-27T01:43:58.647Z,98483.00
2022-12-27T01:45:04.116Z,98490.94
2022-12-27T01:46:07.471Z,98485.13
2022-12-27T01:47:13.220Z,98495.38
2022-12-27T01:48:24.781Z,98487.31
2022-12-27T01:49:27.594Z,98485.69
2022-12-27T01:50:42.666Z,98494.88
2022-12-27T01:51:45.857Z,98497.09
2022-12-27T01:53:12.765Z,98488.44
2022-12-27T01:54:15.796Z,98493.88
2022-12-27T01:55:33.569Z,98496.62
2022-12-27T01:56:36.391Z,98501.34
2022-12-27T01:57:41.551Z,98495.00
2022-12-27T01:59:08.241Z,98497.63
2022-12-27T02:00:11.832Z,98490.16
2022-12-27T02:01:32.248Z,98492.34
2022-12-27T02:02:35.505Z,98487.94
2022-12-27T02:03:45.863Z,98491.00
2022-12-27T02:04:49.179Z,98492.00
2022-12-27T02:05:52.668Z,98490.19
2022-12-27T02:06:55.584Z,98491.00
2022-12-27T02:08:14.951Z,98493.88
2022-12-27T02:09:36.822Z,98485.50
2022-12-27T02:10:40.683Z,98491.56
2022-12-27T02:11:52.800Z,98490.31
2022-12-27T02:12:56.861Z,98496.66
2022-12-27T02:13:59.894Z,98493.09
2022-12-27T02:15:04.694Z,98489.03
2022-12-27T02:16:16.486Z,98507.31
2022-12-27T02:17:25.358Z,98509.38
2022-12-27T02:18:28.416Z,98505.56
2022-12-27T02:19:40.531Z,98511.78
2022-12-27T02:21:06.072Z,98511.62
2022-12-27T02:23:01.535Z,98520.44
2022-12-27T02:24:41.466Z,98516.31
2022-12-27T02:26:05.759Z,98515.53
2022-12-27T02:27:37.416Z,98513.56
2022-12-27T02:29:17.083Z,98522.19
2022-12-27T02:30:20.274Z,98514.37
2022-12-27T02:31:30.236Z,98522.03
2022-12-27T02:32:57.086Z,98516.00
2022-12-27T02:34:02.424Z,98508.97
2022-12-27T02:35:20.783Z,98502.53
2022-12-27T02:36:27.762Z,98495.34
2022-12-27T02:37:34.284Z,98490.88
2022-12-27T02:38:42.723Z,98499.56
2022-12-27T02:39:48.497Z,98492.53
2022-12-27T02:41:13.249Z,98495.94
2022-12-27T02:42:37.457Z,98492.56
2022-12-27T02:43:58.762Z,98492.78
2022-12-27T02:45:21.276Z,98500.41
2022-12-27T02:46:45.640Z,98497.84
2022-12-27T02:48:07.935Z,98491.81
2022-12-27T02:49:51.203Z,98497.56
2022-12-27T02:51:46.465Z,98496.53
2022-12-27T02:53:08.562Z,98496.03
2022-12-27T02:54:36.384Z,98499.37
2022-12-27T02:56:09.467Z,98503.38
2022-12-27T02:57:37.562Z,98496.31
2022-12-27T02:58:43.347Z,98504.94
2022-12-27T03:00:38.695Z,98499.72
2022-12-27T03:02:08.964Z,98496.09
2022-12-27T03:03:29.555Z,98510.22
2022-12-27T03:05:00.373Z,98506.31
2022-12-27T03:06:41.512Z,98519.12
2022-12-27T03:07:54.781Z,98517.03
2022-12-27T03:09:54.055Z,98519.12
2022-12-27T03:11:20.853Z,98517.56
2022-12-27T03:13:06.467Z,98512.88
2022-12-27T03:14:42.231Z,98511.34
2022-12-27T03:16:07.638Z,98505.84
2022-12-27T03:17:37.367Z,98509.78
2022-12-27T03:19:01.040Z,98510.81
2022-12-27T03:20:28.429Z,98509.53
2022-12-27T03:21:57.879Z,98513.19
2022-12-27T03:23:22.381Z,98524.19
2022-12-27T03:24:51.209Z,98518.44
2022-12-27T03:25:58.435Z,98523.66
2022-12-27T03:27:04.221Z,98516.13
2022-12-27T03:28:44.696Z,98522.63
2022-12-27T03:30:11.260Z,98512.22
2022-12-27T03:31:42.937Z,98516.06
2022-12-27T03:33:14.465Z,98514.22
2022-12-27T03:34:32.519Z,98522.34
2022-12-27T03:35:41.984Z,98530.22
2022-12-27T03:37:03.731Z,98518.50
2022-12-27T03:38:09.546Z,98527.09
2022-12-27T03:39:34.096Z,98525.25
2022-12-27T03:40:39.496Z,98528.66
2022-12-27T03:42:09.618Z,98540.41
2022-12-27T03:43:16.035Z,98536.47
2022-12-27T03:44:24.834Z,98543.50
2022-12-27T03:45:58.017Z,98541.94
2022-12-27T03:47:28.855Z,98541.94
2022-12-27T03:48:39.250Z,98549.47
2022-12-27T03:49:50.497Z,98547.91
2022-12-27T03:51:05.336Z,98550.25
2022-12-27T03:52:15.213Z,98556.72
2022-12-27T03:53:50.019Z,98560.09
2022-12-27T03:54:57.370Z,98557.75
2022-12-27T03:56:00.698Z,98558.53
2022-12-27T03:57:14.466Z,98559.00
2022-12-27T03:58:17.578Z,98559.25
2022-12-27T03:59:21.105Z,98561.09
2022-12-27T04:00:23.858Z,98558.75
2022-12-27T04:01:26.724Z,98557.12
2022-12-27T04:02:29.943Z,98555.84
2022-12-27T04:03:32.921Z,98556.09
2022-12-27T04:04:36.152Z,98560.47
2022-12-27T04:05:39.178Z,98563.09
2022-12-27T04:06:42.143Z,98559.44
2022-12-27T04:08:03.578Z,98556.06
2022-12-27T04:09:24.976Z,98564.59
2022-12-27T04:10:46.323Z,98567.22
2022-12-27T04:12:07.743Z,98570.34
2022-12-27T04:13:29.068Z,98574.25
2022-12-27T04:14:50.358Z,98578.09
2022-12-27T04:16:11.599Z,98579.09
2022-12-27T04:17:33.303Z,98578.59
2022-12-27T04:18:54.730Z,98578.94
2022-12-27T04:20:16.434Z,98583.09
2022-12-27T04:21:37.600Z,98581.34
2022-12-27T04:22:59.001Z,98585.69
2022-12-27T04:24:20.282Z,98583.59
2022-12-27T04:25:41.633Z,98587.47
2022-12-27T04:27:02.734Z,98594.72
2022-12-27T04:28:24.038Z,98591.87
2022-12-27T04:29:45.507Z,98590.37
2022-12-27T04:31:06.911Z,98588.53
2022-12-27T04:32:28.222Z,98595.78
2022-12-27T04:33:49.425Z,98590.37
2022-12-27T04:34:52.212Z,98595.19
2022-12-27T04:36:04.347Z,98589.88
2022-12-27T04:37:14.767Z,98594.38
2022-12-27T04:38:17.563Z,98603.97
2022-12-27T04:39:20.455Z,98601.69
2022-12-27T04:40:41.980Z,98601.94
2022-12-27T04:42:03.645Z,98602.78
2022-12-27T04:43:25.234Z,98602.72
2022-12-27T04:45:03.026Z,98607.09
2022-12-27T04:46:28.442Z,98614.63
2022-12-27T04:47:50.937Z,98614.94
2022-12-27T04:49:12.755Z,98612.31
2022-12-27T04:50:49.231Z,98616.69
2022-12-27T04:52:10.657Z,98618.94
2022-12-27T04:53:34.330Z,98619.13
2022-12-27T04:54:55.579Z,98614.47
2022-12-27T04:55:58.495Z,98628.53
2022-12-27T04:57:01.269Z,98626.41
2022-12-27T04:58:04.260Z,98635.72
2022-12-27T04:59:26.115Z,98638.84
2022-12-27T05:00:50.022Z,98634.38
2022-12-27T05:02:04.752Z,98641.97
2022-12-27T05:03:11.917Z,98643.25
2022-12-27T05:04:14.789Z,98653.69
2022-12-27T05:05:17.879Z,98645.63
2022-12-27T05:06:20.886Z,98649.88
2022-12-27T05:07:42.866Z,98656.56
2022-12-27T05:09:04.207Z,98645.84
2022-12-27T05:10:26.100Z,98648.41
2022-12-27T05:11:47.371Z,98652.78
2022-12-27T05:13:08.756Z,98656.12
2022-12-27T05:14:15.259Z,98657.19
2022-12-27T05:15:18.214Z,98655.84
2022-12-27T05:16:21.167Z,98654.25
2022-12-27T05:17:24.029Z,98649.09
2022-12-27T05:18:27.722Z,98661.88
2022-12-27T05:19:30.538Z,98655.47
2022-12-27T05:20:36.623Z,98664.34
2022-12-27T05:22:01.696Z,98672.47
2022-12-27T05:23:24.617Z,98665.09
2022-12-27T05:24:46.256Z,98667.22
2022-12-27T05:25:49.120Z,98660.44
2022-12-27T05:26:52.017Z,98662.66
2022-12-27T05:27:55.417Z,98664.97
2022-12-27T05:28:59.427Z,98669.09
2022-12-27T05:30:02.164Z,98663.25
2022-12-27T05:31:06.237Z,98668.19
2022-12-27T05:32:13.046Z,98668.94
2022-12-27T05:33:16.482Z,98671.38
2022-12-27T05:34:19.301Z,98682.97
2022-12-27T05:35:22.460Z,98670.72
2022-12-27T05:36:25.505Z,98679.94
2022-12-27T05:37:28.832Z,98674.16
2022-12-27T05:38:31.698Z,98684.00
2022-12-27T05:39:34.409Z,98684.75
2022-12-27T05:40:37.277Z,98676.63
2022-12-27T05:41:39.946Z,98681.25
2022-12-27T05:42:42.699Z,98687.63
2022-12-27T05:43:45.855Z,98682.47
2022-12-27T05:44:48.773Z,98685.62
2022-12-27T05:45:51.501Z,98685.53
2022-12-27T05:46:55.604Z,98686.25
2022-12-27T05:48:00.081Z,98690.81
2022-12-27T05:49:03.099Z,98686.94
2022-12-27T05:50:07.147Z,98696.06
2022-12-27T05:51:19.118Z,98694.47
2022-12-27T05:52:22.019Z,98693.28
2022-12-27T05:53:24.775Z,98695.91
2022-12-27T05:54:27.857Z,98697.28
2022-12-27T05:55:30.548Z,98696.78
2022-12-27T05:56:35.588Z,98693.59
2022-12-27T05:57:39.024Z,98705.00
2022-12-27T05:58:42.386Z,98709.72
2022-12-27T05:59:45.195Z,98715.34
2022-12-27T06:00:48.176Z,98711.06
2022-12-27T06:01:51.933Z,98716.94
2022-12-27T06:02:55.184Z,98714.84
2022-12-27T06:03:57.910Z,98714.09
2022-12-27T06:05:00.667Z,98717.22
2022-12-27T06:06:04.967Z,98720.31
2022-12-27T06:07:09.895Z,98716.12
2022-12-27T06:08:12.971Z,98720.06
2022-12-27T06:09:15.749Z,98724.19
2022-12-27T06:10:18.912Z,98727.53
2022-12-27T06:11:21.692Z,98717.88
2022-12-27T06:12:24.418Z,98713.50
2022-12-27T06:13:27.307Z,98718.91
2022-12-27T06:14:30.177Z,98717.81
2022-12-27T06:15:33.070Z,98721.97
2022-12-27T06:16:37.339Z,98728.28
2022-12-27T06:17:40.414Z,98725.34
2022-12-27T06:18:43.531Z,98727.87
2022-12-27T06:19:46.271Z,98727.44
2022-12-27T06:20:49.027Z,98727.03
2022-12-27T06:21:51.848Z,98719.44
2022-12-27T06:22:54.499Z,98720.78
2022-12-27T06:23:57.743Z,98727.09
2022-12-27T06:25:00.611Z,98725.84
2022-12-27T06:26:13.629Z,98731.13
2022-12-27T06:27:16.651Z,98736.25
2022-12-27T06:28:19.496Z,98731.84
2022-12-27T06:29:22.190Z,98739.84
2022-12-27T06:30:24.940Z,98739.03
2022-12-27T06:31:28.374Z,98742.28
2022-12-27T06:32:32.128Z,98747.44
2022-12-27T06:33:35.690Z,98744.56
2022-12-27T06:34:38.422Z,98745.00
2022-12-27T06:35:41.304Z,98749.31
2022-12-27T06:36:50.114Z,98751.00
2022-12-27T06:37:53.027Z,98758.63
2022-12-27T06:38:56.658Z,98748.78
2022-12-27T06:39:59.420Z,98759.25
2022-12-27T06:41:03.291Z,98755.19
2022-12-27T06:42:05.919Z,98747.59
2022-12-27T06:43:08.818Z,98755.12
2022-12-27T06:44:11.493Z,98759.69
2022-12-27T06:45:14.187Z,98765.50
2022-12-27T06:46:18.766Z,98768.03
2022-12-27T06:47:21.869Z,98771.16
2022-12-27T06:48:25.056Z,98773.78
2022-12-27T06:49:28.276Z,98770.56
2022-12-27T06:50:31.227Z,98770.31
2022-12-27T06:51:34.550Z,98777.72
2022-12-27T06:52:37.245Z,98770.16
2022-12-27T06:53:40.542Z,98770.94
2022-12-27T06:54:43.257Z,98775.91
2022-12-27T06:55:46.020Z,98783.91
2022-12-27T06:56:48.749Z,98783.72
2022-12-27T06:57:51.738Z,98786.38
2022-12-27T06:58:54.737Z,98783.53
2022-12-27T06:59:57.454Z,98787.66
2022-12-27T07:01:10.853Z,98786.81
2022-12-27T07:02:14.395Z,98783.78
2022-12-27T07:03:17.276Z,98785.09
2022-12-27T07:04:20.137Z,98784.81
2022-12-27T07:05:22.897Z,98790.72
2022-12-27T07:06:27.673Z,98794.94
2022-12-27T07:07:30.576Z,98792.00
2022-12-27T07:08:33.574Z,98803.13
2022-12-27T07:09:36.549Z,98807.47
2022-12-27T07:10:39.424Z,98788.97
2022-12-27T07:11:42.252Z,98792.84
2022-12-27T07:12:45.407Z,98800.16
2022-12-27T07:13:51.245Z,98794.69
2022-12-27T07:14:54.018Z,98787.66
2022-12-27T07:15:56.729Z,98793.91
2022-12-27T07:16:59.538Z,98799.34
2022-12-27T07:18:02.257Z,98799.59
2022-12-27T07:19:05.135Z,98798.81
2022-12-27T07:20:08.820Z,98793.41
2022-12-27T07:21:18.067Z,98803.03
2022-12-27T07:22:20.894Z,98807.81
2022-12-27T07:23:23.682Z,98804.91
2022-12-27T07:24:26.617Z,98811.06
2022-12-27T07:25:29.578Z,98814.75
2022-12-27T07:26:32.252Z,98815.81
2022-12-27T07:27:36.416Z,98815.81
2022-12-27T07:28:39.500Z,98824.72
2022-12-27T07:29:45.750Z,98819.53
2022-12-27T07:30:48.736Z,98815.16
2022-12-27T07:31:51.701Z,98819.31
2022-12-27T07:32:55.284Z,98820.91
2022-12-27T07:34:00.462Z,98821.97
2022-12-27T07:35:03.242Z,98816.25
2022-12-27T07:36:09.301Z,98820.13
2022-12-27T07:37:12.528Z,98825.56
2022-12-27T07:38:15.392Z,98835.03
2022-12-27T07:39:18.307Z,98824.34
2022-12-27T07:40:21.275Z,98828.75
2022-12-27T07:41:24.908Z,98819.63
2022-12-27T07:42:29.156Z,98821.25
2022-12-27T07:43:33.982Z,98816.31
2022-12-27T07:44:36.792Z,98818.09
2022-12-27T07:45:39.559Z,98824.84
2022-12-27T07:46:42.342Z,98828.53
2022-12-27T07:47:45.559Z,98822.00
2022-12-27T07:48:48.994Z,98834.22
2022-12-27T07:49:52.074Z,98832.16
2022-12-27T07:50:56.155Z,98832.72
2022-12-27T07:51:58.983Z,98833.00
2022-12-27T07:53:02.619Z,98845.00
2022-12-27T07:54:05.623Z,98858.06
2022-12-27T07:55:08.684Z,98856.59
2022-12-27T07:56:23.393Z,98851.63
2022-12-27T07:57:29.660Z,98870.50
2022-12-27T07:58:36.746Z,98863.97
2022-12-27T07:59:39.679Z,98861.59
2022-12-27T08:00:42.667Z,98865.37
2022-12-27T08:02:04.074Z,98869.81
2022-12-27T08:03:07.096Z,98860.69
2022-12-27T08:04:09.799Z,98873.72
2022-12-27T08:05:12.607Z,98869.34
2022-12-27T08:06:34.178Z,98871.69
2022-12-27T08:07:38.298Z,98873.87
2022-12-27T08:08:43.679Z,98885.41
2022-12-27T08:09:47.981Z,98885.91
2022-12-27T08:10:51.010Z,98888.00
2022-12-27T08:11:54.132Z,98890.63
2022-12-27T08:12:56.784Z,98906.06
2022-12-27T08:14:00.611Z,98890.94
2022-12-27T08:15:03.494Z,98904.72
2022-12-27T08:16:07.268Z,98903.94
2022-12-27T08:17:29.847Z,98906.25
2022-12-27T08:18:32.735Z,98911.41
2022-12-27T08:19:35.471Z,98897.56
2022-12-27T08:20:38.151Z,98898.34
2022-12-27T08:21:40.813Z,98904.37
2022-12-27T08:22:43.515Z,98907.25
2022-12-27T08:23:53.372Z,98916.91
2022-12-27T08:24:56.385Z,98900.47
2022-12-27T08:25:59.503Z,98912.41
2022-12-27T08:27:02.277Z,98912.47
2022-12-27T08:28:11.436Z,98903.16
2022-12-27T08:29:14.226Z,98924.53
2022-12-27T08:30:17.347Z,98929.75
2022-12-27T08:31:21.085Z,98939.19
2022-12-27T08:32:24.204Z,98936.34
2022-12-27T08:33:28.151Z,98928.28
2022-12-27T08:34:30.917Z,98929.34
2022-12-27T08:35:52.024Z,98938.00
2022-12-27T08:36:56.602Z,98934.63
2022-12-27T08:38:02.995Z,98947.19
2022-12-27T08:39:08.565Z,98919.78
2022-12-27T08:40:12.150Z,98926.59
2022-12-27T08:41:15.081Z,98917.75
2022-12-27T08:42:17.931Z,98920.34
2022-12-27T08:43:20.585Z,98921.13
2022-12-27T08:44:24.095Z,98920.34
2022-12-27T08:45:27.063Z,98924.53
2022-12-27T08:46:31.435Z,98916.16
2022-12-27T08:47:34.484Z,98938.38
2022-12-27T08:48:41.561Z,98910.44
2022-12-27T08:49:44.206Z,98927.91
2022-12-27T08:50:46.795Z,98929.75
2022-12-27T08:51:50.189Z,98914.59
2022-12-27T08:52:57.607Z,98911.97
2022-12-27T08:54:01.025Z,98905.91
2022-12-27T08:55:04.963Z,98917.66
2022-12-27T08:56:07.935Z,98920.81
2022-12-27T08:57:10.629Z,98921.34
2022-12-27T08:58:16.285Z,98919.47
2022-12-27T08:59:19.252Z,98921.31
2022-12-27T09:00:22.106Z,98911.31
2022-12-27T09:01:25.991Z,98902.09
2022-12-27T09:02:29.825Z,98915.06
2022-12-27T09:03:32.657Z,98915.16
2022-12-27T09:04:35.780Z,98931.31
2022-12-27T09:05:41.964Z,98918.56
2022-12-27T09:06:48.575Z,98917.59
2022-12-27T09:07:51.721Z,98912.69
2022-12-27T09:08:56.296Z,98908.12
2022-12-27T09:09:59.163Z,98928.66
2022-12-27T09:11:10.531Z,98920.59
2022-12-27T09:12:13.862Z,98915.31
2022-12-27T09:13:16.685Z,98928.88
2022-12-27T09:14:19.532Z,98924.63
2022-12-27T09:15:22.263Z,98917.91
2022-12-27T09:16:29.801Z,98909.28
2022-12-27T09:17:33.380Z,98919.06
2022-12-27T09:18:36.148Z,98911.19
2022-12-27T09:19:39.179Z,98924.78
2022-12-27T09:20:42.298Z,98916.38
2022-12-27T09:21:45.093Z,98911.28
2022-12-27T09:22:47.987Z,98926.03
2022-12-27T09:23:51.648Z,98933.34
2022-12-27T09:24:54.290Z,98925.25
2022-12-27T09:25:57.427Z,98931.63
2022-12-27T09:27:00.160Z,98935.31
2022-12-27T09:28:03.000Z,98944.03
2022-12-27T09:29:06.438Z,98943.13
2022-12-27T09:30:09.712Z,98944.13
2022-12-27T09:31:13.897Z,98941.44
2022-12-27T09:32:16.839Z,98950.22
2022-12-27T09:33:19.977Z,98964.31
2022-12-27T09:34:22.705Z,98970.59
2022-12-27T09:35:25.770Z,98955.41
2022-12-27T09:36:29.954Z,98978.44
2022-12-27T09:37:32.762Z,98972.06
2022-12-27T09:38:36.803Z,98964.56
2022-12-27T09:39:39.911Z,98957.59
2022-12-27T09:40:55.730Z,98976.09
2022-12-27T09:42:46.585Z,98959.59
2022-12-27T09:43:53.092Z,98965.88
2022-12-27T09:45:18.101Z,98969.28
2022-12-27T09:46:25.822Z,98977.03
2022-12-27T09:47:43.578Z,98982.00
2022-12-27T09:48:49.884Z,98974.91
2022-12-27T09:50:07.696Z,98989.13
2022-12-27T09:51:19.898Z,98981.16
2022-12-27T09:52:51.733Z,98970.50
2022-12-27T09:54:30.112Z,98977.91
2022-12-27T09:55:42.142Z,98976.19
2022-12-27T09:57:18.397Z,98980.53
2022-12-27T09:58:49.031Z,98976.50
2022-12-27T09:59:58.544Z,98976.31
2022-12-27T10:01:02.899Z,98981.19
2022-12-27T10:02:37.991Z,98992.59
2022-12-27T10:03:40.811Z,98982.16
2022-12-27T10:05:18.444Z,98983.22
2022-12-27T10:06:12.023Z,98997.47
2022-12-27T10:07:42.919Z,98962.97
2022-12-27T10:09:23.003Z,98987.31
2022-12-27T10:10:38.707Z,98993.78
2022-12-27T10:11:50.217Z,98982.84
2022-12-27T10:13:13.763Z,98979.22
2022-12-27T10:14:19.321Z,99014.44
2022-12-27T10:15:29.723Z,98986.50
2022-12-27T10:16:40.531Z,99001.25
2022-12-27T10:18:21.473Z,98981.88
2022-12-27T10:19:33.132Z,98999.22
2022-12-27T10:20:47.934Z,98992.28
2022-12-27T10:22:05.958Z,99001.97
2022-12-27T10:23:16.524Z,99017.94
2022-12-27T10:24:20.753Z,99013.75
2022-12-27T10:25:26.450Z,99014.03
2022-12-27T10:26:29.223Z,99031.53
2022-12-27T10:27:32.290Z,99021.03
2022-12-27T10:29:00.325Z,99026.44
2022-12-27T10:30:23.224Z,99026.13
2022-12-27T10:31:27.190Z,98998.50
2022-12-27T10:32:30.153Z,99022.66
2022-12-27T10:33:35.477Z,99012.16
2022-12-27T10:34:38.496Z,99000.75
2022-12-27T10:35:41.173Z,99008.09
2022-12-27T10:36:45.579Z,99012.50
2022-12-27T10:37:49.567Z,99022.38
2022-12-27T10:38:52.287Z,99025.91
2022-12-27T10:40:12.653Z,99016.28
2022-12-27T10:41:50.400Z,99024.91
2022-12-27T10:43:19.887Z,99026.75
2022-12-27T10:44:23.954Z,99034.22
2022-12-27T10:45:42.862Z,99017.81
2022-12-27T10:46:52.883Z,99013.00
2022-12-27T10:48:00.172Z,99010.16
2022-12-27T10:49:20.550Z,99013.78
2022-12-27T10:50:26.642Z,99012.34
2022-12-27T10:51:39.102Z,99017.69
2022-12-27T10:52:41.772Z,98998.50
2022-12-27T10:53:50.772Z,99016.91
2022-12-27T10:54:55.777Z,99023.28
2022-12-27T10:56:41.737Z,99035.38
2022-12-27T10:57:44.642Z,99026.91
2022-12-27T10:58:58.484Z,99018.44
2022-12-27T11:00:28.446Z,99017.16
2022-12-27T11:01:35.147Z,99015.53
2022-12-27T11:02:53.282Z,99008.75
2022-12-27T11:04:20.650Z,99017.03
2022-12-27T11:05:30.379Z,99010.91
2022-12-27T11:06:33.156Z,99032.78
2022-12-27T11:07:36.122Z,99030.59
2022-12-27T11:08:38.934Z,99033.66
2022-12-27T11:09:50.672Z,99038.94
2022-12-27T11:11:32.485Z,99025.13
2022-12-27T11:12:36.398Z,99029.91
2022-12-27T11:13:39.262Z,99028.94
2022-12-27T11:15:18.863Z,99025.78
2022-12-27T11:16:35.167Z,99034.78
2022-12-27T11:17:45.632Z,99042.66
2022-12-27T11:18:52.247Z,99054.41
2022-12-27T11:19:58.893Z,99048.44
2022-12-27T11:21:02.230Z,99070.22
2022-12-27T11:22:09.553Z,99059.09
2022-12-27T11:23:19.825Z,99068.06
2022-12-27T11:24:23.452Z,99061.16
2022-12-27T11:25:28.331Z,99047.44
2022-12-27T11:26:42.134Z,99045.12
2022-12-27T11:27:52.180Z,99037.56
2022-12-27T11:28:58.583Z,99020.09
2022-12-27T11:30:01.716Z,99015.19
2022-12-27T11:31:10.113Z,99012.69
2022-12-27T11:32:12.987Z,99020.78
2022-12-27T11:33:33.738Z,99018.47
2022-12-27T11:34:47.078Z,99027.91
2022-12-27T11:35:53.622Z,99022.19
2022-12-27T11:37:06.067Z,99031.91
2022-12-27T11:38:23.387Z,99042.66
2022-12-27T11:39:55.605Z,99040.91
2022-12-27T11:41:09.884Z,99048.75
2022-12-27T11:42:28.810Z,99052.94
2022-12-27T11:43:38.623Z,99051.31
2022-12-27T11:45:03.975Z,99066.94
2022-12-27T11:46:24.638Z,99066.16
2022-12-27T11:47:39.339Z,99063.72
2022-12-27T11:48:45.377Z,99063.84
2022-12-27T11:49:50.890Z,99055.56
2022-12-27T11:50:56.659Z,99032.22
2022-12-27T11:52:17.857Z,99066.59
2022-12-27T11:54:34.505Z,99054.91
2022-12-27T11:55:52.703Z,99073.97
2022-12-27T11:57:14.154Z,99057.31
2022-12-27T11:58:52.236Z,99056.19
2022-12-27T12:00:14.139Z,99065.13
2022-12-27T12:01:33.751Z,99067.12
2022-12-27T12:03:15.504Z,99064.94
2022-12-27T12:04:41.352Z,99072.63
2022-12-27T12:06:10.221Z,99059.47
2022-12-27T12:07:37.299Z,99062.25
2022-12-27T12:09:16.083Z,99050.16
2022-12-27T12:10:37.624Z,99039.44
2022-12-27T12:12:01.835Z,99028.41
2022-12-27T12:13:10.292Z,99033.91
2022-12-27T12:14:28.061Z,99025.72
2022-12-27T12:15:45.561Z,99037.53
2022-12-27T12:17:22.290Z,99037.56
2022-12-27T12:18:31.607Z,99027.97
2022-12-27T12:20:02.072Z,99028.25
2022-12-27T12:21:23.492Z,98999.56
2022-12-27T12:22:32.124Z,99015.03
2022-12-27T12:23:59.699Z,99021.69
2022-12-27T12:25:22.229Z,99006.50
2022-12-27T12:26:27.190Z,99029.31
2022-12-27T12:27:50.789Z,99013.50
2022-12-27T12:29:11.973Z,99010.66
2022-12-27T12:30:41.773Z,99015.66
2022-12-27T12:32:21.894Z,99021.59
2022-12-27T12:33:42.259Z,99022.56
2022-12-27T12:34:57.830Z,99009.94
2022-12-27T12:36:37.248Z,99025.00
2022-12-27T12:38:12.386Z,99025.37
2022-12-27T12:39:36.435Z,99014.00
2022-12-27T12:40:54.641Z,99018.00
2022-12-27T12:42:26.515Z,99035.81
2022-12-27T12:43:57.179Z,99036.88
2022-12-27T12:45:31.207Z,99024.28
2022-12-27T12:47:16.095Z,99023.06
2022-12-27T12:48:43.665Z,99025.69
2022-12-27T12:50:19.864Z,99025.81
2022-12-27T12:51:41.876Z,99033.56
2022-12-27T12:53:31.990Z,99031.69
2022-12-27T12:54:40.476Z,99037.38
2022-12-27T12:55:53.602Z,99040.50
2022-12-27T12:57:02.458Z,99039.25
2022-12-27T12:58:14.149Z,99045.34
2022-12-27T12:59:25.599Z,99053.63
2022-12-27T13:00:47.127Z,99064.75
2022-12-27T13:02:08.540Z,99064.37
2022-12-27T13:03:38.044Z,99067.94
2022-12-27T13:05:04.419Z,99069.34
2022-12-27T13:06:36.381Z,99067.31
2022-12-27T13:07:54.593Z,99061.41
2022-12-27T13:09:11.035Z,99061.28
2022-12-27T13:10:43.789Z,99061.25
2022-12-27T13:12:04.940Z,99040.84
2022-12-27T13:13:55.996Z,99054.84
2022-12-27T13:15:39.646Z,99078.72
2022-12-27T13:16:45.339Z,99063.59
2022-12-27T13:17:51.250Z,99070.13
2022-12-27T13:19:14.725Z,99060.97
2022-12-27T13:20:41.969Z,99054.69
2022-12-27T13:22:09.259Z,99059.56
2022-12-27T13:23:30.976Z,99063.97
2022-12-27T13:24:57.734Z,99075.47
2022-12-27T13:26:12.478Z,99055.91
2022-12-27T13:27:35.516Z,99062.03
2022-12-27T13:29:01.402Z,99054.19
2022-12-27T13:30:20.273Z,99068.78
2022-12-27T13:31:44.528Z,99066.19
2022-12-27T13:33:06.058Z,99074.56
2022-12-27T13:34:29.830Z,99079.81
2022-12-27T13:36:01.707Z,99081.66
2022-12-27T13:37:07.255Z,99073.25
2022-12-27T13:38:29.983Z,99076.81
2022-12-27T13:39:41.689Z,99074.03
2022-12-27T13:40:44.425Z,99070.06
2022-12-27T13:42:00.167Z,99077.25
2022-12-27T13:43:21.022Z,99068.63
2022-12-27T13:45:08.359Z,99084.59
2022-12-27T13:46:23.316Z,99090.62
2022-12-27T13:47:39.879Z,99107.28
2022-12-27T13:49:17.143Z,99098.12
2022-12-27T13:51:03.115Z,99098.47
2022-12-27T13:52:26.895Z,99104.97
2022-12-27T13:54:01.951Z,99110.59
2022-12-27T13:55:32.501Z,99121.91
2022-12-27T13:57:14.192Z,99120.97
2022-12-27T13:58:45.971Z,99111.88
2022-12-27T14:00:10.321Z,99117.19
2022-12-27T14:01:28.427Z,99129.41